sensor_id;sensor_type;location;lat;lon;timestamp;P1;durP1;ratioP1;P2;durP2;ratioP2
80748;SDS011;70145;53.746;9.970;2023-07-20T00:01:01;0.77;;;0.60;;
80748;SDS011;70145;53.746;9.970;2023-07-20T00:03:27;1.30;;;0.63;;
80748;SDS011;70145;53.746;9.970;2023-07-20T00:05:52;1.73;;;0.90;;
80748;SDS011;70145;53.746;9.970;2023-07-20T00:08:17;2.40;;;0.97;;
80748;SDS011;70145;53.746;9.970;2023-07-20T00:10:43;1.90;;;1.17;;
80748;SDS011;70145;53.746;9.970;2023-07-20T00:13:09;2.30;;;0.88;;
80748;SDS011;70145;53.746;9.970;2023-07-20T00:15:37;2.45;;;1.00;;
80748;SDS011;70145;53.746;9.970;2023-07-20T00:18:03;1.45;;;1.17;;
80748;SDS011;70145;53.746;9.970;2023-07-20T00:20:31;2.25;;;1.42;;
80748;SDS011;70145;53.746;9.970;2023-07-20T00:22:58;3.28;;;1.40;;
80748;SDS011;70145;53.746;9.970;2023-07-20T00:25:23;10.07;;;1.75;;
80748;SDS011;70145;53.746;9.970;2023-07-20T00:27:49;2.33;;;1.42;;
80748;SDS011;70145;53.746;9.970;2023-07-20T00:30:14;1.70;;;1.15;;
80748;SDS011;70145;53.746;9.970;2023-07-20T00:32:40;7.60;;;1.95;;
80748;SDS011;70145;53.746;9.970;2023-07-20T00:35:06;1.40;;;1.30;;
80748;SDS011;70145;53.746;9.970;2023-07-20T00:37:32;1.13;;;0.80;;
80748;SDS011;70145;53.746;9.970;2023-07-20T00:39:57;2.20;;;1.17;;
80748;SDS011;70145;53.746;9.970;2023-07-20T00:42:22;1.77;;;1.23;;
80748;SDS011;70145;53.746;9.970;2023-07-20T00:44:48;1.23;;;1.00;;
80748;SDS011;70145;53.746;9.970;2023-07-20T00:47:13;1.60;;;1.30;;
80748;SDS011;70145;53.746;9.970;2023-07-20T00:49:38;1.60;;;1.30;;
80748;SDS011;70145;53.746;9.970;2023-07-20T00:52:05;3.63;;;2.20;;
80748;SDS011;70145;53.746;9.970;2023-07-20T00:54:32;2.67;;;1.42;;
80748;SDS011;70145;53.746;9.970;2023-07-20T00:56:57;3.22;;;1.73;;
80748;SDS011;70145;53.746;9.970;2023-07-20T00:59:23;3.53;;;1.75;;
80748;SDS011;70145;53.746;9.970;2023-07-20T01:01:49;2.05;;;1.45;;
80748;SDS011;70145;53.746;9.970;2023-07-20T01:04:14;1.45;;;1.13;;
80748;SDS011;70145;53.746;9.970;2023-07-20T01:06:48;2.75;;;1.45;;
80748;SDS011;70145;53.746;9.970;2023-07-20T01:14:37;1.70;;;1.40;;
80748;SDS011;70145;53.746;9.970;2023-07-20T01:17:03;2.15;;;1.60;;
80748;SDS011;70145;53.746;9.970;2023-07-20T01:19:29;1.73;;;1.50;;
80748;SDS011;70145;53.746;9.970;2023-07-20T01:21:59;4.88;;;1.75;;
80748;SDS011;70145;53.746;9.970;2023-07-20T01:24:32;3.33;;;1.55;;
80748;SDS011;70145;53.746;9.970;2023-07-20T01:27:19;2.35;;;1.60;;
80748;SDS011;70145;53.746;9.970;2023-07-20T01:32:19;2.67;;;2.08;;
80748;SDS011;70145;53.746;9.970;2023-07-20T01:34:49;3.17;;;1.85;;
80748;SDS011;70145;53.746;9.970;2023-07-20T01:37:17;2.85;;;1.90;;
80748;SDS011;70145;53.746;9.970;2023-07-20T01:39:45;3.47;;;2.28;;
80748;SDS011;70145;53.746;9.970;2023-07-20T01:42:10;3.72;;;2.45;;
80748;SDS011;70145;53.746;9.970;2023-07-20T01:44:37;3.40;;;2.28;;
80748;SDS011;70145;53.746;9.970;2023-07-20T01:47:02;3.65;;;2.60;;
80748;SDS011;70145;53.746;9.970;2023-07-20T01:49:29;3.78;;;2.30;;
80748;SDS011;70145;53.746;9.970;2023-07-20T01:51:54;3.43;;;2.20;;
80748;SDS011;70145;53.746;9.970;2023-07-20T01:54:19;3.97;;;2.83;;
80748;SDS011;70145;53.746;9.970;2023-07-20T01:56:44;3.35;;;2.15;;
80748;SDS011;70145;53.746;9.970;2023-07-20T01:59:10;3.78;;;2.40;;
80748;SDS011;70145;53.746;9.970;2023-07-20T02:01:35;2.93;;;2.27;;
80748;SDS011;70145;53.746;9.970;2023-07-20T02:04:00;3.00;;;2.27;;
80748;SDS011;70145;53.746;9.970;2023-07-20T02:06:26;3.80;;;2.33;;
80748;SDS011;70145;53.746;9.970;2023-07-20T02:08:51;4.00;;;2.00;;
80748;SDS011;70145;53.746;9.970;2023-07-20T02:11:16;3.10;;;2.53;;
80748;SDS011;70145;53.746;9.970;2023-07-20T02:13:41;4.30;;;2.40;;
80748;SDS011;70145;53.746;9.970;2023-07-20T02:16:07;3.30;;;2.00;;
80748;SDS011;70145;53.746;9.970;2023-07-20T02:18:32;4.13;;;2.63;;
80748;SDS011;70145;53.746;9.970;2023-07-20T02:20:58;3.50;;;2.60;;
80748;SDS011;70145;53.746;9.970;2023-07-20T02:23:24;3.22;;;2.70;;
80748;SDS011;70145;53.746;9.970;2023-07-20T02:25:49;4.93;;;2.42;;
80748;SDS011;70145;53.746;9.970;2023-07-20T02:28:14;2.57;;;2.17;;
80748;SDS011;70145;53.746;9.970;2023-07-20T02:30:40;4.18;;;3.05;;
80748;SDS011;70145;53.746;9.970;2023-07-20T02:33:05;3.20;;;2.43;;
80748;SDS011;70145;53.746;9.970;2023-07-20T02:35:31;3.53;;;2.75;;
80748;SDS011;70145;53.746;9.970;2023-07-20T02:37:57;3.67;;;2.92;;
80748;SDS011;70145;53.746;9.970;2023-07-20T02:40:22;3.37;;;2.70;;
80748;SDS011;70145;53.746;9.970;2023-07-20T02:42:48;4.63;;;2.70;;
80748;SDS011;70145;53.746;9.970;2023-07-20T02:45:13;2.97;;;2.25;;
80748;SDS011;70145;53.746;9.970;2023-07-20T02:47:39;5.13;;;2.70;;
80748;SDS011;70145;53.746;9.970;2023-07-20T02:50:06;3.53;;;2.33;;
80748;SDS011;70145;53.746;9.970;2023-07-20T02:52:32;3.40;;;2.85;;
80748;SDS011;70145;53.746;9.970;2023-07-20T02:54:58;3.40;;;3.07;;
80748;SDS011;70145;53.746;9.970;2023-07-20T02:57:23;3.17;;;2.60;;
80748;SDS011;70145;53.746;9.970;2023-07-20T02:59:48;3.10;;;2.60;;
80748;SDS011;70145;53.746;9.970;2023-07-20T03:02:13;4.23;;;3.70;;
80748;SDS011;70145;53.746;9.970;2023-07-20T03:04:39;3.90;;;3.00;;
80748;SDS011;70145;53.746;9.970;2023-07-20T03:07:04;3.50;;;2.63;;
80748;SDS011;70145;53.746;9.970;2023-07-20T03:09:30;4.07;;;2.83;;
80748;SDS011;70145;53.746;9.970;2023-07-20T03:11:55;4.83;;;3.63;;
80748;SDS011;70145;53.746;9.970;2023-07-20T03:14:20;5.93;;;3.53;;
80748;SDS011;70145;53.746;9.970;2023-07-20T03:16:46;3.85;;;2.70;;
80748;SDS011;70145;53.746;9.970;2023-07-20T03:19:11;3.27;;;2.83;;
80748;SDS011;70145;53.746;9.970;2023-07-20T03:21:36;3.67;;;3.30;;
80748;SDS011;70145;53.746;9.970;2023-07-20T03:24:05;4.07;;;3.03;;
80748;SDS011;70145;53.746;9.970;2023-07-20T03:26:32;4.00;;;3.35;;
80748;SDS011;70145;53.746;9.970;2023-07-20T03:28:57;4.10;;;3.70;;
80748;SDS011;70145;53.746;9.970;2023-07-20T03:31:22;4.17;;;3.00;;
80748;SDS011;70145;53.746;9.970;2023-07-20T03:33:48;4.30;;;3.17;;
80748;SDS011;70145;53.746;9.970;2023-07-20T03:36:13;3.45;;;3.00;;
80748;SDS011;70145;53.746;9.970;2023-07-20T03:38:38;5.60;;;3.10;;
80748;SDS011;70145;53.746;9.970;2023-07-20T03:41:04;3.85;;;3.40;;
80748;SDS011;70145;53.746;9.970;2023-07-20T03:43:29;4.17;;;3.17;;
80748;SDS011;70145;53.746;9.970;2023-07-20T03:45:55;5.15;;;3.40;;
80748;SDS011;70145;53.746;9.970;2023-07-20T03:48:22;4.35;;;3.17;;
80748;SDS011;70145;53.746;9.970;2023-07-20T03:50:48;3.72;;;3.33;;
80748;SDS011;70145;53.746;9.970;2023-07-20T03:53:15;3.90;;;3.35;;
80748;SDS011;70145;53.746;9.970;2023-07-20T03:55:45;5.25;;;3.10;;
80748;SDS011;70145;53.746;9.970;2023-07-20T03:58:11;3.50;;;2.60;;
80748;SDS011;70145;53.746;9.970;2023-07-20T04:00:38;4.47;;;2.47;;
80748;SDS011;70145;53.746;9.970;2023-07-20T04:03:03;3.73;;;2.83;;
80748;SDS011;70145;53.746;9.970;2023-07-20T04:05:28;3.43;;;3.00;;
80748;SDS011;70145;53.746;9.970;2023-07-20T04:07:53;2.70;;;2.50;;
80748;SDS011;70145;53.746;9.970;2023-07-20T04:10:19;2.67;;;2.20;;
80748;SDS011;70145;53.746;9.970;2023-07-20T04:12:44;3.83;;;2.70;;
80748;SDS011;70145;53.746;9.970;2023-07-20T04:15:12;3.15;;;2.38;;
80748;SDS011;70145;53.746;9.970;2023-07-20T04:17:38;2.97;;;2.45;;
80748;SDS011;70145;53.746;9.970;2023-07-20T04:20:03;3.58;;;2.95;;
80748;SDS011;70145;53.746;9.970;2023-07-20T04:22:30;3.70;;;2.35;;
80748;SDS011;70145;53.746;9.970;2023-07-20T04:24:55;3.57;;;3.17;;
80748;SDS011;70145;53.746;9.970;2023-07-20T04:27:21;3.80;;;3.10;;
80748;SDS011;70145;53.746;9.970;2023-07-20T04:29:46;3.97;;;2.65;;
80748;SDS011;70145;53.746;9.970;2023-07-20T04:32:11;3.17;;;2.77;;
80748;SDS011;70145;53.746;9.970;2023-07-20T04:34:37;3.23;;;2.57;;
80748;SDS011;70145;53.746;9.970;2023-07-20T04:37:03;3.13;;;2.72;;
80748;SDS011;70145;53.746;9.970;2023-07-20T04:39:29;3.08;;;2.70;;
80748;SDS011;70145;53.746;9.970;2023-07-20T04:41:54;3.00;;;2.45;;
80748;SDS011;70145;53.746;9.970;2023-07-20T04:44:19;3.43;;;2.47;;
80748;SDS011;70145;53.746;9.970;2023-07-20T04:46:45;2.20;;;2.00;;
80748;SDS011;70145;53.746;9.970;2023-07-20T04:49:11;2.95;;;2.53;;
80748;SDS011;70145;53.746;9.970;2023-07-20T04:51:37;2.55;;;2.10;;
80748;SDS011;70145;53.746;9.970;2023-07-20T04:54:03;3.22;;;1.92;;
80748;SDS011;70145;53.746;9.970;2023-07-20T04:56:28;3.95;;;1.95;;
80748;SDS011;70145;53.746;9.970;2023-07-20T04:58:54;3.70;;;2.30;;
80748;SDS011;70145;53.746;9.970;2023-07-20T05:01:19;3.20;;;1.73;;
80748;SDS011;70145;53.746;9.970;2023-07-20T05:03:45;2.47;;;1.70;;
80748;SDS011;70145;53.746;9.970;2023-07-20T05:06:10;2.53;;;1.80;;
80748;SDS011;70145;53.746;9.970;2023-07-20T05:08:35;2.07;;;1.77;;
80748;SDS011;70145;53.746;9.970;2023-07-20T05:11:00;1.97;;;1.27;;
80748;SDS011;70145;53.746;9.970;2023-07-20T05:13:26;3.17;;;1.83;;
80748;SDS011;70145;53.746;9.970;2023-07-20T05:15:51;3.13;;;1.30;;
80748;SDS011;70145;53.746;9.970;2023-07-20T05:18:17;2.47;;;1.95;;
80748;SDS011;70145;53.746;9.970;2023-07-20T05:20:45;2.97;;;1.80;;
80748;SDS011;70145;53.746;9.970;2023-07-20T05:23:14;1.50;;;1.05;;
80748;SDS011;70145;53.746;9.970;2023-07-20T05:25:39;1.58;;;1.35;;
80748;SDS011;70145;53.746;9.970;2023-07-20T05:28:05;1.80;;;1.50;;
80748;SDS011;70145;53.746;9.970;2023-07-20T05:30:31;2.33;;;1.55;;
80748;SDS011;70145;53.746;9.970;2023-07-20T05:32:56;2.50;;;1.20;;
80748;SDS011;70145;53.746;9.970;2023-07-20T05:35:21;1.83;;;1.10;;
80748;SDS011;70145;53.746;9.970;2023-07-20T05:37:47;2.42;;;1.00;;
80748;SDS011;70145;53.746;9.970;2023-07-20T05:40:14;1.98;;;1.00;;
80748;SDS011;70145;53.746;9.970;2023-07-20T05:42:43;1.77;;;1.20;;
80748;SDS011;70145;53.746;9.970;2023-07-20T05:45:08;2.23;;;1.30;;
80748;SDS011;70145;53.746;9.970;2023-07-20T05:47:34;2.20;;;1.38;;
80748;SDS011;70145;53.746;9.970;2023-07-20T05:49:59;2.13;;;1.13;;
80748;SDS011;70145;53.746;9.970;2023-07-20T05:52:25;4.97;;;1.30;;
80748;SDS011;70145;53.746;9.970;2023-07-20T05:54:50;2.07;;;1.10;;
80748;SDS011;70145;53.746;9.970;2023-07-20T05:57:16;1.43;;;1.27;;
80748;SDS011;70145;53.746;9.970;2023-07-20T05:59:41;1.25;;;0.80;;
80748;SDS011;70145;53.746;9.970;2023-07-20T06:02:09;2.00;;;1.10;;
80748;SDS011;70145;53.746;9.970;2023-07-20T06:04:35;3.03;;;1.33;;
80748;SDS011;70145;53.746;9.970;2023-07-20T06:07:00;2.22;;;1.65;;
80748;SDS011;70145;53.746;9.970;2023-07-20T06:09:27;2.47;;;0.90;;
80748;SDS011;70145;53.746;9.970;2023-07-20T06:11:54;1.63;;;0.82;;
80748;SDS011;70145;53.746;9.970;2023-07-20T06:14:19;3.10;;;1.03;;
80748;SDS011;70145;53.746;9.970;2023-07-20T06:16:45;1.10;;;1.00;;
80748;SDS011;70145;53.746;9.970;2023-07-20T06:19:10;2.70;;;0.90;;
80748;SDS011;70145;53.746;9.970;2023-07-20T06:21:38;1.05;;;0.52;;
80748;SDS011;70145;53.746;9.970;2023-07-20T06:24:04;0.50;;;0.43;;
80748;SDS011;70145;53.746;9.970;2023-07-20T06:26:30;2.60;;;0.80;;
80748;SDS011;70145;53.746;9.970;2023-07-20T06:28:56;1.05;;;0.60;;
80748;SDS011;70145;53.746;9.970;2023-07-20T06:31:21;2.80;;;0.88;;
80748;SDS011;70145;53.746;9.970;2023-07-20T06:33:47;2.25;;;0.50;;
80748;SDS011;70145;53.746;9.970;2023-07-20T06:36:12;3.72;;;1.00;;
80748;SDS011;70145;53.746;9.970;2023-07-20T06:38:38;2.42;;;0.95;;
80748;SDS011;70145;53.746;9.970;2023-07-20T06:41:03;1.40;;;0.63;;
80748;SDS011;70145;53.746;9.970;2023-07-20T06:43:29;2.05;;;0.50;;
80748;SDS011;70145;53.746;9.970;2023-07-20T06:45:54;1.02;;;0.70;;
80748;SDS011;70145;53.746;9.970;2023-07-20T06:48:20;1.50;;;0.60;;
80748;SDS011;70145;53.746;9.970;2023-07-20T06:50:46;2.80;;;0.90;;
80748;SDS011;70145;53.746;9.970;2023-07-20T06:53:11;1.80;;;0.50;;
80748;SDS011;70145;53.746;9.970;2023-07-20T06:55:36;1.85;;;0.32;;
80748;SDS011;70145;53.746;9.970;2023-07-20T06:58:02;1.03;;;0.50;;
80748;SDS011;70145;53.746;9.970;2023-07-20T07:00:28;1.35;;;0.30;;
80748;SDS011;70145;53.746;9.970;2023-07-20T07:02:53;3.40;;;0.70;;
80748;SDS011;70145;53.746;9.970;2023-07-20T07:05:18;1.15;;;0.50;;
80748;SDS011;70145;53.746;9.970;2023-07-20T07:07:44;1.85;;;0.40;;
80748;SDS011;70145;53.746;9.970;2023-07-20T07:10:09;2.08;;;0.93;;
80748;SDS011;70145;53.746;9.970;2023-07-20T07:12:34;3.83;;;0.82;;
80748;SDS011;70145;53.746;9.970;2023-07-20T07:15:00;1.17;;;0.50;;
80748;SDS011;70145;53.746;9.970;2023-07-20T07:17:27;1.98;;;0.70;;
80748;SDS011;70145;53.746;9.970;2023-07-20T07:19:53;2.03;;;0.88;;
80748;SDS011;70145;53.746;9.970;2023-07-20T07:22:19;1.85;;;0.70;;
80748;SDS011;70145;53.746;9.970;2023-07-20T07:24:46;2.10;;;1.02;;
80748;SDS011;70145;53.746;9.970;2023-07-20T07:27:12;1.48;;;0.80;;
80748;SDS011;70145;53.746;9.970;2023-07-20T07:29:37;1.50;;;0.90;;
80748;SDS011;70145;53.746;9.970;2023-07-20T07:32:02;2.35;;;1.10;;
80748;SDS011;70145;53.746;9.970;2023-07-20T07:34:28;4.03;;;1.52;;
80748;SDS011;70145;53.746;9.970;2023-07-20T07:36:53;1.98;;;0.63;;
80748;SDS011;70145;53.746;9.970;2023-07-20T07:39:19;3.13;;;1.00;;
80748;SDS011;70145;53.746;9.970;2023-07-20T07:41:44;3.78;;;1.10;;
80748;SDS011;70145;53.746;9.970;2023-07-20T07:44:09;1.75;;;0.75;;
80748;SDS011;70145;53.746;9.970;2023-07-20T07:46:35;1.07;;;0.70;;
80748;SDS011;70145;53.746;9.970;2023-07-20T07:49:00;1.60;;;0.90;;
80748;SDS011;70145;53.746;9.970;2023-07-20T07:51:25;2.30;;;0.77;;
80748;SDS011;70145;53.746;9.970;2023-07-20T07:53:52;1.83;;;0.95;;
80748;SDS011;70145;53.746;9.970;2023-07-20T07:56:17;3.42;;;0.95;;
80748;SDS011;70145;53.746;9.970;2023-07-20T07:58:46;1.75;;;1.20;;
80748;SDS011;70145;53.746;9.970;2023-07-20T08:01:11;2.30;;;1.23;;
80748;SDS011;70145;53.746;9.970;2023-07-20T08:03:37;3.15;;;1.00;;
80748;SDS011;70145;53.746;9.970;2023-07-20T08:06:02;4.05;;;1.60;;
80748;SDS011;70145;53.746;9.970;2023-07-20T08:08:29;3.35;;;1.20;;
80748;SDS011;70145;53.746;9.970;2023-07-20T08:10:55;2.58;;;1.10;;
80748;SDS011;70145;53.746;9.970;2023-07-20T08:13:20;3.63;;;1.50;;
80748;SDS011;70145;53.746;9.970;2023-07-20T08:15:50;2.72;;;1.02;;
80748;SDS011;70145;53.746;9.970;2023-07-20T08:18:19;3.40;;;0.93;;
80748;SDS011;70145;53.746;9.970;2023-07-20T08:20:45;3.80;;;1.48;;
80748;SDS011;70145;53.746;9.970;2023-07-20T08:23:10;2.65;;;1.02;;
80748;SDS011;70145;53.746;9.970;2023-07-20T08:25:36;3.20;;;1.10;;
80748;SDS011;70145;53.746;9.970;2023-07-20T08:28:04;2.63;;;0.70;;
80748;SDS011;70145;53.746;9.970;2023-07-20T08:30:38;3.67;;;0.80;;
80748;SDS011;70145;53.746;9.970;2023-07-20T08:33:05;3.72;;;1.05;;
80748;SDS011;70145;53.746;9.970;2023-07-20T08:35:30;6.27;;;1.17;;
80748;SDS011;70145;53.746;9.970;2023-07-20T08:37:55;2.03;;;1.07;;
80748;SDS011;70145;53.746;9.970;2023-07-20T08:40:21;4.68;;;1.05;;
80748;SDS011;70145;53.746;9.970;2023-07-20T08:42:46;2.67;;;1.13;;
80748;SDS011;70145;53.746;9.970;2023-07-20T08:45:11;3.03;;;1.23;;
80748;SDS011;70145;53.746;9.970;2023-07-20T08:47:38;2.42;;;0.75;;
80748;SDS011;70145;53.746;9.970;2023-07-20T08:50:07;1.67;;;0.43;;
80748;SDS011;70145;53.746;9.970;2023-07-20T08:52:33;2.38;;;0.75;;
80748;SDS011;70145;53.746;9.970;2023-07-20T08:54:59;3.83;;;0.50;;
80748;SDS011;70145;53.746;9.970;2023-07-20T08:57:28;2.10;;;0.40;;
80748;SDS011;70145;53.746;9.970;2023-07-20T08:59:54;1.80;;;0.60;;
80748;SDS011;70145;53.746;9.970;2023-07-20T09:02:19;2.22;;;0.60;;
80748;SDS011;70145;53.746;9.970;2023-07-20T09:04:50;1.60;;;0.77;;
80748;SDS011;70145;53.746;9.970;2023-07-20T09:07:15;2.63;;;0.40;;
80748;SDS011;70145;53.746;9.970;2023-07-20T09:09:40;2.85;;;0.63;;
80748;SDS011;70145;53.746;9.970;2023-07-20T09:12:14;2.97;;;1.45;;
80748;SDS011;70145;53.746;9.970;2023-07-20T09:14:42;1.15;;;0.80;;
80748;SDS011;70145;53.746;9.970;2023-07-20T09:17:14;3.90;;;1.23;;
80748;SDS011;70145;53.746;9.970;2023-07-20T09:19:46;5.85;;;0.80;;
80748;SDS011;70145;53.746;9.970;2023-07-20T09:22:12;3.17;;;0.85;;
80748;SDS011;70145;53.746;9.970;2023-07-20T09:24:38;1.65;;;0.82;;
80748;SDS011;70145;53.746;9.970;2023-07-20T09:27:04;1.58;;;0.55;;
80748;SDS011;70145;53.746;9.970;2023-07-20T09:29:29;1.45;;;0.68;;
80748;SDS011;70145;53.746;9.970;2023-07-20T09:32:13;1.80;;;0.50;;
80748;SDS011;70145;53.746;9.970;2023-07-20T09:34:43;3.67;;;0.80;;
80748;SDS011;70145;53.746;9.970;2023-07-20T09:37:09;1.60;;;0.93;;
80748;SDS011;70145;53.746;9.970;2023-07-20T09:39:41;2.67;;;0.47;;
80748;SDS011;70145;53.746;9.970;2023-07-20T09:42:09;1.25;;;0.95;;
80748;SDS011;70145;53.746;9.970;2023-07-20T09:44:36;2.03;;;1.05;;
80748;SDS011;70145;53.746;9.970;2023-07-20T09:47:03;0.83;;;0.30;;
80748;SDS011;70145;53.746;9.970;2023-07-20T09:49:28;1.15;;;0.30;;
80748;SDS011;70145;53.746;9.970;2023-07-20T09:51:54;0.70;;;0.63;;
80748;SDS011;70145;53.746;9.970;2023-07-20T09:54:22;2.53;;;0.82;;
80748;SDS011;70145;53.746;9.970;2023-07-20T09:56:48;2.63;;;0.90;;
80748;SDS011;70145;53.746;9.970;2023-07-20T09:59:15;1.67;;;0.40;;
80748;SDS011;70145;53.746;9.970;2023-07-20T10:01:41;1.83;;;0.80;;
80748;SDS011;70145;53.746;9.970;2023-07-20T10:04:09;4.72;;;0.93;;
80748;SDS011;70145;53.746;9.970;2023-07-20T10:06:36;1.80;;;0.77;;
80748;SDS011;70145;53.746;9.970;2023-07-20T10:09:07;1.38;;;0.38;;
80748;SDS011;70145;53.746;9.970;2023-07-20T10:11:35;2.90;;;0.40;;
80748;SDS011;70145;53.746;9.970;2023-07-20T10:14:04;2.85;;;0.60;;
80748;SDS011;70145;53.746;9.970;2023-07-20T10:16:36;1.60;;;0.60;;
80748;SDS011;70145;53.746;9.970;2023-07-20T10:22:10;2.00;;;0.50;;
80748;SDS011;70145;53.746;9.970;2023-07-20T10:24:38;1.08;;;1.00;;
80748;SDS011;70145;53.746;9.970;2023-07-20T10:27:04;1.95;;;0.90;;
80748;SDS011;70145;53.746;9.970;2023-07-20T10:29:30;0.90;;;0.30;;
80748;SDS011;70145;53.746;9.970;2023-07-20T10:31:56;2.63;;;1.30;;
80748;SDS011;70145;53.746;9.970;2023-07-20T10:34:22;1.60;;;1.20;;
80748;SDS011;70145;53.746;9.970;2023-07-20T10:36:49;2.05;;;0.80;;
80748;SDS011;70145;53.746;9.970;2023-07-20T10:42:11;2.83;;;0.60;;
80748;SDS011;70145;53.746;9.970;2023-07-20T10:44:37;1.25;;;0.80;;
80748;SDS011;70145;53.746;9.970;2023-07-20T10:47:07;1.63;;;0.57;;
80748;SDS011;70145;53.746;9.970;2023-07-20T10:49:34;1.67;;;0.52;;
80748;SDS011;70145;53.746;9.970;2023-07-20T10:52:03;1.92;;;0.93;;
80748;SDS011;70145;53.746;9.970;2023-07-20T10:56:56;2.42;;;0.98;;
80748;SDS011;70145;53.746;9.970;2023-07-20T11:01:56;3.00;;;0.60;;
80748;SDS011;70145;53.746;9.970;2023-07-20T11:04:37;2.22;;;0.30;;
80748;SDS011;70145;53.746;9.970;2023-07-20T11:07:02;0.98;;;0.20;;
80748;SDS011;70145;53.746;9.970;2023-07-20T11:09:33;3.03;;;0.55;;
80748;SDS011;70145;53.746;9.970;2023-07-20T11:13:00;0.90;;;0.40;;
80748;SDS011;70145;53.746;9.970;2023-07-20T11:15:00;1.48;;;0.60;;
80748;SDS011;70145;53.746;9.970;2023-07-20T11:17:29;0.90;;;0.50;;
80748;SDS011;70145;53.746;9.970;2023-07-20T11:22:22;1.83;;;1.00;;
80748;SDS011;70145;53.746;9.970;2023-07-20T11:24:47;0.52;;;0.28;;
80748;SDS011;70145;53.746;9.970;2023-07-20T11:27:14;1.88;;;0.45;;
80748;SDS011;70145;53.746;9.970;2023-07-20T11:29:40;1.40;;;0.50;;
80748;SDS011;70145;53.746;9.970;2023-07-20T11:32:05;1.10;;;0.50;;
80748;SDS011;70145;53.746;9.970;2023-07-20T11:34:31;1.98;;;0.47;;
80748;SDS011;70145;53.746;9.970;2023-07-20T11:36:57;1.77;;;0.70;;
80748;SDS011;70145;53.746;9.970;2023-07-20T11:39:23;0.77;;;0.43;;
80748;SDS011;70145;53.746;9.970;2023-07-20T11:41:53;1.75;;;0.20;;
80748;SDS011;70145;53.746;9.970;2023-07-20T11:44:20;1.33;;;0.20;;
80748;SDS011;70145;53.746;9.970;2023-07-20T11:47:02;0.95;;;0.47;;
80748;SDS011;70145;53.746;9.970;2023-07-20T11:49:29;2.97;;;0.45;;
80748;SDS011;70145;53.746;9.970;2023-07-20T11:51:55;2.65;;;0.73;;
80748;SDS011;70145;53.746;9.970;2023-07-20T11:54:22;2.92;;;1.20;;
80748;SDS011;70145;53.746;9.970;2023-07-20T11:56:48;3.15;;;0.68;;
80748;SDS011;70145;53.746;9.970;2023-07-20T11:59:13;2.88;;;0.60;;
80748;SDS011;70145;53.746;9.970;2023-07-20T12:01:38;1.37;;;0.53;;
80748;SDS011;70145;53.746;9.970;2023-07-20T12:04:04;1.60;;;0.22;;
80748;SDS011;70145;53.746;9.970;2023-07-20T12:06:29;4.80;;;1.02;;
80748;SDS011;70145;53.746;9.970;2023-07-20T12:08:56;3.20;;;0.80;;
80748;SDS011;70145;53.746;9.970;2023-07-20T12:13:58;2.97;;;0.60;;
80748;SDS011;70145;53.746;9.970;2023-07-20T12:16:26;2.58;;;0.70;;
80748;SDS011;70145;53.746;9.970;2023-07-20T12:18:59;2.92;;;2.72;;
80748;SDS011;70145;53.746;9.970;2023-07-20T12:21:29;1.85;;;0.57;;
80748;SDS011;70145;53.746;9.970;2023-07-20T12:23:55;1.42;;;0.32;;
80748;SDS011;70145;53.746;9.970;2023-07-20T12:26:24;1.83;;;0.90;;
80748;SDS011;70145;53.746;9.970;2023-07-20T12:28:50;3.00;;;1.10;;
80748;SDS011;70145;53.746;9.970;2023-07-20T12:31:16;2.47;;;1.00;;
80748;SDS011;70145;53.746;9.970;2023-07-20T12:33:42;1.98;;;0.60;;
80748;SDS011;70145;53.746;9.970;2023-07-20T12:36:08;1.23;;;0.30;;
80748;SDS011;70145;53.746;9.970;2023-07-20T12:38:34;4.75;;;0.75;;
80748;SDS011;70145;53.746;9.970;2023-07-20T12:41:00;1.48;;;0.32;;
80748;SDS011;70145;53.746;9.970;2023-07-20T12:43:26;2.95;;;0.60;;
80748;SDS011;70145;53.746;9.970;2023-07-20T12:45:51;1.60;;;0.43;;
80748;SDS011;70145;53.746;9.970;2023-07-20T12:48:17;3.70;;;0.80;;
80748;SDS011;70145;53.746;9.970;2023-07-20T12:50:42;0.98;;;0.13;;
80748;SDS011;70145;53.746;9.970;2023-07-20T12:53:07;1.00;;;0.40;;
80748;SDS011;70145;53.746;9.970;2023-07-20T12:55:33;1.48;;;0.57;;
80748;SDS011;70145;53.746;9.970;2023-07-20T12:57:58;2.17;;;0.50;;
80748;SDS011;70145;53.746;9.970;2023-07-20T13:00:23;1.92;;;0.50;;
80748;SDS011;70145;53.746;9.970;2023-07-20T13:02:49;1.63;;;0.30;;
80748;SDS011;70145;53.746;9.970;2023-07-20T13:05:15;1.85;;;0.52;;
80748;SDS011;70145;53.746;9.970;2023-07-20T13:07:40;2.70;;;0.85;;
80748;SDS011;70145;53.746;9.970;2023-07-20T13:10:06;0.93;;;0.45;;
80748;SDS011;70145;53.746;9.970;2023-07-20T13:12:33;1.42;;;0.82;;
80748;SDS011;70145;53.746;9.970;2023-07-20T13:15:01;1.48;;;0.68;;
80748;SDS011;70145;53.746;9.970;2023-07-20T13:17:31;3.80;;;0.30;;
80748;SDS011;70145;53.746;9.970;2023-07-20T13:19:57;0.57;;;0.20;;
80748;SDS011;70145;53.746;9.970;2023-07-20T13:22:22;2.67;;;0.50;;
80748;SDS011;70145;53.746;9.970;2023-07-20T13:24:48;2.45;;;0.73;;
80748;SDS011;70145;53.746;9.970;2023-07-20T13:27:15;1.67;;;0.20;;
80748;SDS011;70145;53.746;9.970;2023-07-20T13:29:41;3.35;;;0.80;;
80748;SDS011;70145;53.746;9.970;2023-07-20T13:32:07;1.90;;;0.80;;
80748;SDS011;70145;53.746;9.970;2023-07-20T13:34:33;2.50;;;0.40;;
80748;SDS011;70145;53.746;9.970;2023-07-20T13:36:58;1.35;;;0.50;;
80748;SDS011;70145;53.746;9.970;2023-07-20T13:39:23;1.00;;;0.68;;
80748;SDS011;70145;53.746;9.970;2023-07-20T13:41:51;1.85;;;0.57;;
80748;SDS011;70145;53.746;9.970;2023-07-20T13:44:16;1.03;;;0.40;;
80748;SDS011;70145;53.746;9.970;2023-07-20T13:46:41;1.23;;;0.32;;
80748;SDS011;70145;53.746;9.970;2023-07-20T13:49:07;0.70;;;0.40;;
80748;SDS011;70145;53.746;9.970;2023-07-20T13:51:32;1.15;;;1.15;;
80748;SDS011;70145;53.746;9.970;2023-07-20T13:53:57;0.50;;;0.10;;
80748;SDS011;70145;53.746;9.970;2023-07-20T13:56:23;1.35;;;0.55;;
80748;SDS011;70145;53.746;9.970;2023-07-20T13:58:49;1.40;;;0.30;;
80748;SDS011;70145;53.746;9.970;2023-07-20T14:01:15;0.85;;;0.60;;
80748;SDS011;70145;53.746;9.970;2023-07-20T14:03:42;1.88;;;0.30;;
80748;SDS011;70145;53.746;9.970;2023-07-20T14:06:08;0.60;;;0.20;;
80748;SDS011;70145;53.746;9.970;2023-07-20T14:08:33;1.10;;;0.80;;
80748;SDS011;70145;53.746;9.970;2023-07-20T14:10:58;1.00;;;0.97;;
80748;SDS011;70145;53.746;9.970;2023-07-20T14:13:24;1.45;;;0.38;;
80748;SDS011;70145;53.746;9.970;2023-07-20T14:15:49;1.48;;;0.32;;
80748;SDS011;70145;53.746;9.970;2023-07-20T14:18:15;1.77;;;0.43;;
80748;SDS011;70145;53.746;9.970;2023-07-20T14:20:40;0.77;;;0.30;;
80748;SDS011;70145;53.746;9.970;2023-07-20T14:23:06;1.25;;;0.30;;
80748;SDS011;70145;53.746;9.970;2023-07-20T14:25:31;1.05;;;0.20;;
80748;SDS011;70145;53.746;9.970;2023-07-20T14:27:58;2.05;;;0.45;;
80748;SDS011;70145;53.746;9.970;2023-07-20T14:30:25;1.25;;;0.30;;
80748;SDS011;70145;53.746;9.970;2023-07-20T14:32:51;0.68;;;0.20;;
80748;SDS011;70145;53.746;9.970;2023-07-20T14:35:16;0.95;;;0.22;;
80748;SDS011;70145;53.746;9.970;2023-07-20T14:37:42;2.42;;;0.57;;
80748;SDS011;70145;53.746;9.970;2023-07-20T14:40:07;1.43;;;0.70;;
80748;SDS011;70145;53.746;9.970;2023-07-20T14:42:33;1.65;;;0.38;;
80748;SDS011;70145;53.746;9.970;2023-07-20T14:44:58;1.20;;;0.73;;
80748;SDS011;70145;53.746;9.970;2023-07-20T14:47:23;1.08;;;0.47;;
80748;SDS011;70145;53.746;9.970;2023-07-20T14:49:49;2.13;;;0.40;;
80748;SDS011;70145;53.746;9.970;2023-07-20T14:52:14;1.97;;;0.70;;
80748;SDS011;70145;53.746;9.970;2023-07-20T14:54:39;2.10;;;0.60;;
80748;SDS011;70145;53.746;9.970;2023-07-20T14:57:05;3.70;;;1.37;;
80748;SDS011;70145;53.746;9.970;2023-07-20T14:59:38;2.20;;;0.40;;
80748;SDS011;70145;53.746;9.970;2023-07-20T15:02:03;1.00;;;0.50;;
80748;SDS011;70145;53.746;9.970;2023-07-20T15:04:29;2.00;;;1.90;;
80748;SDS011;70145;53.746;9.970;2023-07-20T15:06:54;1.80;;;0.50;;